Time;durP1;ratioP1;P1;durP2;ratioP2;P2;SDS_P1;SDS_P2;PMS_P1;PMS_P2;Temp;Humidity;BMP_temperature;BMP_pressure;BME280_temperature;BME280_humidity;BME280_pressure;Samples;Min_cycle;Max_cycle;Signal;HPM_P1;HPM_P2
2023/01/02 00:01:46;;;;;;;4.10;1.60;;;12.40;98.30;12.40;100748.00;;;;4908932;28;105429;-64
2023/01/02 00:04:12;;;;;;;2.37;1.57;;;12.40;98.30;12.40;100745.00;;;;4907922;28;121873;-64
2023/01/02 00:06:38;;;;;;;3.63;1.33;;;12.40;98.30;12.40;100741.00;;;;4905803;28;122278;-63
2023/01/02 00:09:06;;;;;;;3.50;1.83;;;12.40;98.30;12.50;100734.00;;;;4904616;28;100342;-64
2023/01/02 00:11:32;;;;;;;1.37;1.27;;;12.50;98.40;12.50;100730.00;;;;4907902;28;93793;-64
2023/01/02 00:13:58;;;;;;;1.40;1.30;;;12.50;98.40;12.50;100714.00;;;;4907076;28;112838;-64
2023/01/02 00:16:24;;;;;;;3.00;1.50;;;12.50;98.50;12.50;100720.00;;;;4908436;28;122511;-64
2023/01/02 00:18:50;;;;;;;1.40;1.30;;;12.50;98.50;12.60;100726.00;;;;4909097;28;110754;-64
2023/01/02 00:21:16;;;;;;;5.13;2.60;;;12.50;98.50;12.60;100712.00;;;;4904943;28;103779;-64
2023/01/02 00:23:43;;;;;;;6.10;1.73;;;12.50;98.50;12.60;100712.00;;;;4907256;28;114386;-63
2023/01/02 00:26:09;;;;;;;4.30;1.20;;;12.60;98.60;12.70;100712.00;;;;4908057;28;93915;-63
2023/01/02 00:28:36;;;;;;;2.13;1.60;;;12.70;98.50;12.70;100708.00;;;;4909623;28;110835;-63
2023/01/02 00:31:11;;;;;;;2.73;2.07;;;12.70;98.40;12.80;100704.00;;;;4908974;28;92947;-63
2023/01/02 00:33:37;;;;;;;1.40;1.07;;;12.80;98.20;12.90;100699.00;;;;4891664;28;94074;-63
2023/01/02 00:36:10;;;;;;;1.70;1.40;;;12.80;98.10;12.90;100696.00;;;;4907894;28;122607;-63
2023/01/02 00:38:36;;;;;;;1.73;1.30;;;12.90;98.00;12.90;100697.00;;;;4909608;28;92602;-63
2023/01/02 00:41:02;;;;;;;3.93;2.43;;;12.90;97.90;12.90;100692.00;;;;4908520;28;92829;-63
2023/01/02 00:43:28;;;;;;;4.63;1.73;;;12.90;97.90;12.90;100685.00;;;;4905653;28;100034;-64
2023/01/02 00:45:54;;;;;;;3.27;2.13;;;12.90;97.90;13.00;100683.00;;;;4907110;28;106506;-63
2023/01/02 00:48:21;;;;;;;3.50;1.77;;;12.90;97.80;13.00;100693.00;;;;4909842;28;92883;-63
2023/01/02 00:50:47;;;;;;;5.80;1.87;;;13.00;97.80;13.00;100689.00;;;;4906536;28;92819;-63
2023/01/02 00:53:13;;;;;;;4.13;1.87;;;13.00;97.80;13.00;100680.00;;;;4910011;28;115629;-63
2023/01/02 00:55:38;;;;;;;5.93;1.77;;;13.00;97.80;13.00;100678.00;;;;4905103;28;122075;-63
2023/01/02 00:58:04;;;;;;;2.07;1.83;;;13.00;97.80;13.00;100671.00;;;;4905121;28;110912;-63
2023/01/02 01:00:30;;;;;;;2.60;1.70;;;13.10;97.80;13.10;100674.00;;;;4912459;28;108469;-63
2023/01/02 01:02:59;;;;;;;4.00;2.10;;;13.00;97.80;13.10;100673.00;;;;4910857;28;121815;-63
2023/01/02 01:05:26;;;;;;;2.30;2.00;;;13.10;97.80;13.10;100668.00;;;;4867413;28;93499;-64
2023/01/02 01:07:56;;;;;;;3.73;1.80;;;13.10;97.70;13.10;100660.00;;;;4906703;28;92893;-64
2023/01/02 01:10:24;;;;;;;5.50;2.13;;;13.10;97.70;13.20;100669.00;;;;4904854;28;92844;-63
2023/01/02 01:12:50;;;;;;;2.13;1.47;;;13.10;97.70;13.20;100673.00;;;;4905913;28;93790;-63
2023/01/02 01:15:16;;;;;;;5.50;2.03;;;13.20;97.60;13.20;100660.00;;;;4908518;28;114094;-64
2023/01/02 01:17:42;;;;;;;2.13;1.93;;;13.20;97.50;13.30;100660.00;;;;4906529;28;110936;-63
2023/01/02 01:20:08;;;;;;;2.83;1.73;;;13.20;97.50;13.30;100658.00;;;;4908140;28;94116;-63
2023/01/02 01:22:34;;;;;;;5.87;2.60;;;13.30;97.40;13.30;100665.00;;;;4903313;28;114985;-65
2023/01/02 01:25:00;;;;;;;4.53;2.37;;;13.30;97.40;13.30;100665.00;;;;4904023;28;122085;-63
2023/01/02 01:27:25;;;;;;;4.00;2.07;;;13.30;97.30;13.30;100664.00;;;;4903291;28;110040;-62
2023/01/02 01:29:52;;;;;;;5.23;2.60;;;13.30;97.30;13.30;100656.00;;;;4905529;28;108680;-64
2023/01/02 01:32:17;;;;;;;3.30;2.67;;;13.30;97.30;13.30;100648.00;;;;4901880;28;121068;-63
2023/01/02 01:34:43;;;;;;;4.00;1.50;;;13.30;97.30;13.30;100660.00;;;;4902768;28;121598;-63
2023/01/02 01:37:10;;;;;;;3.70;1.77;;;13.30;97.30;13.30;100655.00;;;;4903846;28;94014;-63
2023/01/02 01:39:36;;;;;;;5.00;2.03;;;13.30;97.40;13.20;100657.00;;;;4903476;28;97052;-63
2023/01/02 01:42:02;;;;;;;3.20;2.13;;;13.30;97.40;13.30;100653.00;;;;4906400;28;122913;-63
2023/01/02 01:44:57;;;;;;;2.87;2.07;;;13.30;97.50;13.20;100654.00;;;;4904605;28;110374;-64
2023/01/02 01:47:39;;;;;;;6.03;1.87;;;13.30;97.40;13.20;100654.00;;;;4888840;28;109696;-63
2023/01/02 01:50:11;;;;;;;5.43;3.07;;;13.30;97.40;13.30;100656.00;;;;4903273;28;101497;-63
2023/01/02 01:52:44;;;;;;;7.70;2.80;;;13.30;97.30;13.30;100654.00;;;;4905022;28;113254;-63
2023/01/02 01:55:21;;;;;;;6.03;2.83;;;13.30;97.30;13.30;100647.00;;;;4881841;28;114380;-63
2023/01/02 01:58:09;;;;;;;3.73;2.83;;;13.30;97.40;13.20;100642.00;;;;4886766;28;102389;-64
2023/01/02 02:00:36;;;;;;;3.20;2.20;;;13.30;97.50;13.20;100640.00;;;;4891417;28;102968;-63
2023/01/02 02:03:10;;;;;;;4.97;1.50;;;13.30;97.60;13.20;100638.00;;;;4907169;28;94368;-63
2023/01/02 02:05:37;;;;;;;4.30;1.97;;;13.20;97.70;13.10;100639.00;;;;4905844;28;93477;-63
2023/01/02 02:08:21;;;;;;;5.17;2.37;;;13.20;97.70;13.10;100631.00;;;;4908815;28;100661;-63
2023/01/02 02:10:47;;;;;;;2.90;2.10;;;13.10;97.80;13.10;100632.00;;;;4890459;28;102572;-63
2023/01/02 02:13:13;;;;;;;2.57;2.03;;;13.10;97.80;13.20;100640.00;;;;4903322;28;113413;-64
2023/01/02 02:16:06;;;;;;;5.83;2.47;;;13.20;97.70;13.20;100632.00;;;;4904408;28;122604;-64
2023/01/02 02:19:15;;;;;;;3.10;2.00;;;13.20;97.60;13.30;100636.00;;;;4908689;28;92897;-64
2023/01/02 02:21:53;;;;;;;3.33;2.22;;;13.30;97.40;13.40;100626.00;;;;4883676;28;103636;-65
2023/01/02 02:25:06;;;;;;;2.97;2.27;;;13.40;97.10;13.50;100627.00;;;;4906482;28;97928;-64
2023/01/02 02:28:02;;;;;;;3.90;2.50;;;13.50;96.90;13.60;100626.00;;;;4907752;28;93539;-63
2023/01/02 02:30:45;;;;;;;5.00;2.73;;;13.50;96.50;13.60;100617.00;;;;4906927;28;92970;-62
2023/01/02 02:33:32;;;;;;;3.80;2.17;;;13.60;96.30;13.70;100611.00;;;;4889876;28;93008;-64
2023/01/02 02:36:12;;;;;;;2.60;2.27;;;13.60;96.10;13.70;100607.00;;;;4884909;28;92602;-63
2023/01/02 02:39:17;;;;;;;4.10;2.80;;;13.70;95.80;13.80;100606.00;;;;4904088;28;92997;-65
2023/01/02 02:42:01;;;;;;;2.67;2.20;;;13.70;95.60;13.80;100607.00;;;;4902191;28;100405;-64
2023/01/02 02:45:07;;;;;;;3.87;2.23;;;13.80;95.50;13.80;100593.00;;;;4888219;28;94273;-64
2023/01/02 02:47:53;;;;;;;2.63;2.13;;;13.80;95.30;13.90;100596.00;;;;4878842;28;113447;-63
2023/01/02 02:50:59;;;;;;;4.85;2.30;;;13.80;95.00;13.90;100582.00;;;;4905391;28;93299;-63
2023/01/02 02:53:31;;;;;;;8.80;3.23;;;13.90;94.80;13.90;100590.00;;;;4903949;28;92849;-63
2023/01/02 02:56:00;;;;;;;5.43;2.33;;;13.90;94.70;14.00;100582.00;;;;4890780;28;102739;-63
2023/01/02 02:58:28;;;;;;;3.93;2.23;;;13.90;94.60;14.00;100571.00;;;;4889295;28;93241;-62
2023/01/02 03:01:23;;;;;;;3.47;2.55;;;14.00;94.40;14.00;100579.00;;;;4888778;28;93258;-63
2023/01/02 03:03:49;;;;;;;6.82;2.47;;;14.00;94.30;14.00;100566.00;;;;4886697;28;93250;-62
2023/01/02 03:06:17;;;;;;;4.43;2.17;;;14.50;94.20;14.00;100565.00;;;;4904900;28;108860;-64
2023/01/02 03:09:13;;;;;;;6.13;2.95;;;14.00;94.00;14.00;100571.00;;;;4904320;28;123995;-63
2023/01/02 03:12:07;;;;;;;4.17;2.60;;;14.00;93.80;14.10;100575.00;;;;4902135;28;93808;-63
2023/01/02 03:14:47;;;;;;;4.43;2.67;;;14.00;93.60;14.10;100568.00;;;;4905146;28;94023;-63
2023/01/02 03:17:46;;;;;;;2.75;2.10;;;14.00;93.50;14.10;100569.00;;;;4891473;28;95606;-64
2023/01/02 03:20:14;;;;;;;5.30;2.13;;;14.10;93.30;14.10;100564.00;;;;4881136;28;113971;-64
2023/01/02 03:22:46;;;;;;;3.42;2.67;;;14.10;93.30;14.10;100576.00;;;;4901740;28;110543;-63
2023/01/02 03:25:14;;;;;;;12.13;3.33;;;14.10;93.20;14.10;100568.00;;;;4907423;28;102973;-63
2023/01/02 03:27:44;;;;;;;3.50;2.85;;;14.10;92.90;14.10;100573.00;;;;4888499;28;93482;-63
2023/01/02 03:30:17;;;;;;;4.88;2.42;;;14.10;92.90;14.10;100565.00;;;;4905957;28;93319;-64
2023/01/02 03:33:02;;;;;;;7.00;2.72;;;14.10;92.70;14.10;100558.00;;;;4890307;28;99063;-63
2023/01/02 03:35:37;;;;;;;6.00;2.40;;;14.10;92.60;14.10;100558.00;;;;4891482;28;92891;-64
2023/01/02 03:38:10;;;;;;;5.97;2.53;;;14.10;92.30;14.10;100559.00;;;;4889185;28;93982;-64
2023/01/02 03:40:43;;;;;;;4.45;2.65;;;14.10;92.40;14.10;100550.00;;;;4906681;28;114066;-64
2023/01/02 03:43:17;;;;;;;4.43;2.33;;;14.10;92.10;14.10;100565.00;;;;4892682;28;113076;-63
2023/01/02 03:45:55;;;;;;;3.50;2.20;;;14.10;92.00;14.20;100562.00;;;;4889818;28;92965;-64
2023/01/02 03:48:49;;;;;;;4.43;2.42;;;14.10;92.00;14.10;100553.00;;;;4900304;28;93030;-64
2023/01/02 03:51:15;;;;;;;3.05;2.10;;;14.10;91.90;14.20;100555.00;;;;4918916;28;93219;-65
2023/01/02 03:53:41;;;;;;;4.67;2.60;;;14.10;91.70;14.20;100560.00;;;;4889337;28;115358;-63
2023/01/02 03:56:21;;;;;;;3.97;2.42;;;14.10;91.70;14.10;100567.00;;;;4888850;28;102061;-64
2023/01/02 03:58:56;;;;;;;5.03;2.58;;;14.10;91.70;14.10;100557.00;;;;4903856;28;95225;-63
2023/01/02 04:01:48;;;;;;;4.60;2.95;;;14.10;91.70;14.10;100557.00;;;;4910672;28;93662;-63
2023/01/02 04:04:28;;;;;;;8.75;2.75;;;14.10;91.60;14.10;100552.00;;;;4910581;28;116418;-64
2023/01/02 04:07:02;;;;;;;2.75;2.53;;;14.10;91.50;14.10;100546.00;;;;4906348;28;92869;-61
2023/01/02 04:09:31;;;;;;;3.10;2.45;;;14.10;91.40;14.10;100549.00;;;;4888683;28;92945;-62
2023/01/02 04:12:07;;;;;;;5.30;2.90;;;14.00;91.40;14.10;100550.00;;;;4894083;28;99299;-64
2023/01/02 04:14:46;;;;;;;8.75;2.28;;;14.10;91.40;14.10;100535.00;;;;4910052;28;115859;-62
2023/01/02 04:17:15;;;;;;;3.97;2.40;;;14.00;91.40;14.00;100536.00;;;;4904448;28;102137;-61
2023/01/02 04:19:48;;;;;;;3.28;2.45;;;14.00;91.40;14.00;100541.00;;;;4907822;28;99353;-63
2023/01/02 04:22:20;;;;;;;4.18;2.67;;;14.00;91.30;14.00;100544.00;;;;4909346;28;117232;-64
2023/01/02 04:24:53;;;;;;;1.97;1.70;;;14.00;91.70;14.00;100552.00;;;;4893160;28;92931;-62
2023/01/02 04:27:30;;;;;;;6.30;3.53;;;14.00;91.30;14.00;100544.00;;;;4894549;28;92715;-63
2023/01/02 04:29:56;;;;;;;4.13;2.38;;;14.00;91.30;14.00;100559.00;;;;4889315;28;93699;-64
2023/01/02 04:32:31;;;;;;;6.00;2.93;;;14.00;91.30;14.00;100551.00;;;;4907073;28;123038;-63
2023/01/02 04:34:59;;;;;;;3.80;2.87;;;14.00;91.30;14.00;100545.00;;;;4894409;28;93194;-63
2023/01/02 04:37:37;;;;;;;2.50;2.30;;;13.90;91.20;14.00;100549.00;;;;4893039;28;92901;-63
2023/01/02 04:40:24;;;;;;;4.43;3.03;;;14.00;91.50;14.00;100553.00;;;;4909247;28;92911;-64
2023/01/02 04:42:50;;;;;;;12.23;7.28;;;14.00;91.20;14.00;100553.00;;;;4888054;28;93346;-62
2023/01/02 04:45:16;;;;;;;10.95;5.20;;;14.00;91.20;13.90;100556.00;;;;4904126;28;123891;-62
2023/01/02 04:47:42;;;;;;;6.43;2.80;;;13.90;91.20;13.90;100557.00;;;;4906689;28;109754;-64
2023/01/02 04:50:09;;;;;;;4.20;2.58;;;13.90;91.10;14.00;100548.00;;;;4904781;28;92755;-64
2023/01/02 04:52:35;;;;;;;4.47;2.58;;;13.90;91.10;13.90;100551.00;;;;4911292;28;108373;-64
2023/01/02 04:55:00;;;;;;;5.17;2.57;;;13.90;91.10;13.90;100560.00;;;;4902128;28;122856;-63
2023/01/02 04:57:26;;;;;;;4.53;2.77;;;13.90;91.10;13.90;100544.00;;;;4907555;28;93146;-62
2023/01/02 04:59:52;;;;;;;4.78;3.25;;;13.90;91.10;13.90;100557.00;;;;4910131;28;108093;-62
2023/01/02 05:02:17;;;;;;;3.47;2.50;;;13.90;91.10;13.90;100556.00;;;;4908116;28;123700;-63
2023/01/02 05:04:43;;;;;;;2.97;2.28;;;14.30;91.10;13.90;100556.00;;;;4907246;28;98869;-63
2023/01/02 05:07:09;;;;;;;3.22;2.72;;;13.90;91.00;13.90;100561.00;;;;4908190;28;94378;-63
2023/01/02 05:09:34;;;;;;;6.78;3.10;;;13.90;91.00;13.90;100560.00;;;;4903485;28;92949;-64
2023/01/02 05:12:00;;;;;;;5.07;3.05;;;13.90;90.90;13.90;100564.00;;;;4905996;28;122575;-64
2023/01/02 05:14:26;;;;;;;3.92;3.25;;;13.80;90.90;13.90;100571.00;;;;4904112;28;122111;-63
2023/01/02 05:16:51;;;;;;;6.53;3.30;;;13.80;90.90;13.80;100560.00;;;;4890207;28;92836;-61
2023/01/02 05:19:17;;;;;;;8.20;3.63;;;13.80;90.90;13.80;100561.00;;;;4905336;28;108380;-64
2023/01/02 05:24:27;;;;;;;4.97;2.27;;;13.70;90.90;13.70;100578.00;;;;4907021;28;92844;-65
2023/01/02 05:26:53;;;;;;;6.30;3.23;;;13.70;91.00;13.70;100565.00;;;;4904705;28;111123;-63
2023/01/02 05:29:19;;;;;;;2.97;2.40;;;13.70;91.40;13.70;100571.00;;;;4904232;28;92851;-65
2023/01/02 05:31:44;;;;;;;4.47;3.10;;;13.70;91.10;13.60;100571.00;;;;4906400;28;112386;-62
2023/01/02 05:34:14;;;;;;;5.00;3.90;;;13.70;91.00;13.70;100563.00;;;;4905409;28;121290;-62
2023/01/02 05:36:39;;;;;;;5.07;2.70;;;13.70;91.10;13.60;100564.00;;;;4906013;28;104552;-63
2023/01/02 05:39:11;;;;;;;6.57;3.77;;;13.60;91.00;13.60;100563.00;;;;4900600;28;108936;-62
2023/01/02 05:41:38;;;;;;;7.03;3.33;;;13.60;91.00;13.60;100552.00;;;;4903570;28;93804;-63
2023/01/02 05:44:07;;;;;;;3.63;3.27;;;13.60;91.00;13.60;100548.00;;;;4904117;28;93884;-64
2023/01/02 05:46:33;;;;;;;4.33;2.97;;;13.60;90.90;13.60;100545.00;;;;4906734;28;92985;-63
2023/01/02 05:48:59;;;;;;;3.70;3.00;;;13.60;90.90;13.60;100553.00;;;;4903534;28;98808;-63
2023/01/02 05:51:24;;;;;;;4.40;3.03;;;13.60;90.80;13.60;100556.00;;;;4905011;28;107469;-63
2023/01/02 05:53:52;;;;;;;3.17;2.10;;;13.60;91.20;13.60;100563.00;;;;4901145;28;121805;-61
2023/01/02 05:56:20;;;;;;;5.97;3.23;;;13.60;90.80;13.60;100551.00;;;;4904381;28;110523;-63
2023/01/02 05:58:47;;;;;;;3.97;2.23;;;13.60;90.80;13.60;100546.00;;;;4903725;28;92954;-63
2023/01/02 06:01:22;;;;;;;5.53;2.77;;;13.50;90.70;13.60;100553.00;;;;4903672;28;92898;-64
2023/01/02 06:03:51;;;;;;;4.80;2.50;;;13.30;90.60;13.60;100549.00;;;;4907017;28;94572;-62
2023/01/02 06:06:22;;;;;;;5.37;2.97;;;13.50;90.70;13.50;100543.00;;;;4905296;28;92753;-63
2023/01/02 06:08:48;;;;;;;4.53;3.10;;;13.50;90.70;13.50;100548.00;;;;4903953;28;94150;-63
2023/01/02 06:11:13;;;;;;;4.27;2.80;;;13.50;90.70;13.50;100554.00;;;;4908070;28;93570;-63
2023/01/02 06:13:39;;;;;;;4.37;2.20;;;13.50;90.70;13.50;100549.00;;;;4902862;28;92980;-64
2023/01/02 06:16:08;;;;;;;6.70;2.80;;;13.50;90.80;13.50;100545.00;;;;4905334;28;92808;-63
2023/01/02 06:18:36;;;;;;;2.20;2.00;;;13.40;90.80;13.40;100545.00;;;;4903120;28;103721;-61
2023/01/02 06:21:11;;;;;;;4.67;1.83;;;13.40;90.70;13.40;100545.00;;;;4904389;28;94163;-62
2023/01/02 06:23:38;;;;;;;4.70;2.60;;;13.40;90.80;13.40;100553.00;;;;4906076;28;92844;-63
2023/01/02 06:26:05;;;;;;;3.37;2.70;;;13.40;90.80;13.40;100550.00;;;;4904059;28;110034;-64
2023/01/02 06:28:32;;;;;;;4.00;2.17;;;13.40;90.80;13.40;100554.00;;;;4904591;28;93213;-63
2023/01/02 06:31:04;;;;;;;4.10;2.50;;;13.40;90.80;13.40;100555.00;;;;4906673;28;92749;-62
2023/01/02 06:33:30;;;;;;;4.93;2.70;;;13.40;90.90;13.40;100548.00;;;;4905165;28;94044;-62
2023/01/02 06:36:12;;;;;;;4.30;2.27;;;13.40;90.90;13.40;100545.00;;;;4904588;28;110294;-63
2023/01/02 06:38:38;;;;;;;4.43;2.63;;;13.40;90.90;13.40;100550.00;;;;4904825;28;100579;-62
2023/01/02 06:41:05;;;;;;;3.53;2.00;;;13.30;91.00;13.40;100554.00;;;;4905851;28;122909;-64
2023/01/02 06:43:33;;;;;;;4.33;2.03;;;13.40;91.00;13.30;100552.00;;;;4908791;28;93636;-62
2023/01/02 06:46:00;;;;;;;6.00;2.17;;;13.40;91.00;13.40;100555.00;;;;4906880;28;92960;-62
2023/01/02 06:48:26;;;;;;;3.47;2.27;;;13.30;90.90;13.30;100550.00;;;;4904491;28;93248;-63
2023/01/02 06:50:52;;;;;;;6.50;2.67;;;13.30;90.90;13.30;100548.00;;;;4905631;28;92385;-62
2023/01/02 06:53:17;;;;;;;4.57;2.67;;;13.30;90.90;13.30;100553.00;;;;4903151;28;96039;-63
2023/01/02 06:55:55;;;;;;;5.57;2.90;;;13.30;90.90;13.30;100556.00;;;;4905839;28;110601;-64
2023/01/02 06:58:21;;;;;;;3.70;2.77;;;13.30;90.90;13.30;100553.00;;;;4898816;28;95319;-65
2023/01/02 07:00:48;;;;;;;3.93;2.50;;;13.30;90.90;13.30;100555.00;;;;4903096;28;93087;-63
2023/01/02 07:03:15;;;;;;;2.30;1.70;;;13.30;90.90;13.30;100545.00;;;;4902902;28;93859;-63
2023/01/02 07:05:40;;;;;;;4.43;2.57;;;13.30;90.90;13.30;100556.00;;;;4887050;28;93086;-63
2023/01/02 07:08:07;;;;;;;3.77;1.83;;;13.30;90.90;13.30;100546.00;;;;4906851;28;93340;-62
2023/01/02 07:10:33;;;;;;;4.77;2.43;;;13.30;90.80;13.40;100554.00;;;;4906039;28;97507;-63
2023/01/02 07:12:59;;;;;;;5.00;2.67;;;13.30;90.70;13.40;100545.00;;;;4904184;28;108986;-63
2023/01/02 07:15:24;;;;;;;3.80;2.37;;;13.30;90.70;13.40;100553.00;;;;4905006;28;108778;-63
2023/01/02 07:17:50;;;;;;;2.90;2.33;;;13.30;90.70;13.40;100562.00;;;;4905863;28;106924;-63
2023/01/02 07:20:16;;;;;;;7.70;3.17;;;13.40;90.70;13.40;100554.00;;;;4906924;28;94034;-61
2023/01/02 07:22:41;;;;;;;3.23;2.17;;;13.30;90.50;13.40;100562.00;;;;4902295;28;94169;-63
2023/01/02 07:25:07;;;;;;;4.33;1.97;;;13.40;90.60;13.40;100561.00;;;;4904537;28;92985;-62
2023/01/02 07:27:33;;;;;;;3.93;2.80;;;13.60;90.60;13.40;100572.00;;;;4904144;28;102348;-63
2023/01/02 07:29:59;;;;;;;4.17;3.23;;;13.40;90.50;13.40;100572.00;;;;4902983;28;100470;-64
2023/01/02 07:32:25;;;;;;;5.53;2.40;;;13.40;90.50;13.40;100577.00;;;;4902024;28;93053;-62
2023/01/02 07:34:51;;;;;;;3.20;2.90;;;13.40;90.40;13.40;100567.00;;;;4885354;28;111532;-64
2023/01/02 07:37:17;;;;;;;4.70;2.37;;;13.40;90.40;13.40;100553.00;;;;4904088;28;108820;-64
2023/01/02 07:39:42;;;;;;;9.47;3.50;;;13.40;90.40;13.50;100574.00;;;;4905476;28;122474;-64
2023/01/02 07:42:08;;;;;;;5.07;2.90;;;13.40;90.30;13.50;100571.00;;;;4904526;28;121697;-64
2023/01/02 07:44:34;;;;;;;7.20;3.00;;;13.40;90.50;13.40;100583.00;;;;4901414;28;109339;-63
2023/01/02 07:47:01;;;;;;;4.30;1.90;;;13.40;90.90;13.40;100575.00;;;;4903269;28;93950;-64
2023/01/02 07:49:26;;;;;;;2.10;1.90;;;13.40;91.00;13.40;100590.00;;;;4906989;28;112553;-63
2023/01/02 07:51:52;;;;;;;5.53;2.73;;;13.40;90.90;13.40;100588.00;;;;4905040;28;96900;-62
2023/01/02 07:54:17;;;;;;;4.07;2.60;;;13.30;90.90;13.40;100583.00;;;;4906000;28;109887;-64
2023/01/02 07:56:43;;;;;;;3.27;2.27;;;13.30;90.80;13.40;100588.00;;;;4906503;28;107902;-62
2023/01/02 07:59:09;;;;;;;2.60;2.40;;;13.30;90.70;13.40;100588.00;;;;4905994;28;123077;-62
2023/01/02 08:01:34;;;;;;;5.03;2.07;;;13.30;90.70;13.40;100593.00;;;;4902440;28;120160;-64
2023/01/02 08:04:00;;;;;;;5.00;2.73;;;13.40;90.70;13.40;100593.00;;;;4887478;28;92482;-62
2023/01/02 08:06:26;;;;;;;4.03;2.47;;;13.40;90.70;13.40;100587.00;;;;4900523;28;93125;-65
2023/01/02 08:08:51;;;;;;;6.93;2.60;;;13.40;90.70;13.50;100594.00;;;;4903078;28;110564;-63
2023/01/02 08:11:20;;;;;;;3.80;2.57;;;13.40;90.50;13.50;100598.00;;;;4902037;28;102275;-63
2023/01/02 08:13:47;;;;;;;3.37;2.70;;;13.40;90.50;13.50;100590.00;;;;4903239;28;92884;-63
2023/01/02 08:16:18;;;;;;;4.20;2.57;;;13.40;90.50;13.50;100596.00;;;;4903099;28;93035;-62
2023/01/02 08:18:45;;;;;;;3.93;2.70;;;13.40;90.40;13.40;100607.00;;;;4906670;28;93919;-62
2023/01/02 08:21:12;;;;;;;5.50;3.17;;;13.40;90.50;13.40;100608.00;;;;4911406;28;93501;-63
2023/01/02 08:23:38;;;;;;;3.67;2.47;;;13.40;90.60;13.40;100615.00;;;;4921979;28;98610;-63
2023/01/02 08:26:07;;;;;;;5.90;3.20;;;13.40;90.70;13.40;100615.00;;;;4908544;28;103161;-64
2023/01/02 08:28:33;;;;;;;5.60;2.93;;;13.40;90.70;13.40;100619.00;;;;4909632;28;110157;-62
2023/01/02 08:30:59;;;;;;;5.03;2.70;;;13.30;90.70;13.30;100620.00;;;;4902850;28;93005;-63
2023/01/02 08:33:25;;;;;;;5.53;3.53;;;13.30;90.70;13.30;100610.00;;;;4902329;28;110859;-64
2023/01/02 08:35:51;;;;;;;3.60;2.17;;;13.30;90.80;13.30;100613.00;;;;4900854;28;96170;-62
2023/01/02 08:38:17;;;;;;;8.37;3.03;;;13.30;90.90;13.30;100624.00;;;;4902866;28;122190;-63
2023/01/02 08:40:43;;;;;;;4.03;2.57;;;13.30;90.90;13.30;100621.00;;;;4905110;28;93529;-63
2023/01/02 08:43:09;;;;;;;5.80;2.77;;;13.30;91.10;13.30;100639.00;;;;4900747;28;111032;-63
2023/01/02 08:45:35;;;;;;;3.33;2.23;;;13.30;91.20;13.30;100640.00;;;;4906664;28;108507;-64
2023/01/02 08:48:00;;;;;;;7.27;4.10;;;13.20;91.20;13.30;100626.00;;;;4902655;28;122605;-62
2023/01/02 08:50:26;;;;;;;4.87;3.40;;;13.30;91.10;13.30;100631.00;;;;4902264;28;104900;-61
2023/01/02 08:52:52;;;;;;;3.27;2.97;;;13.30;91.20;13.30;100637.00;;;;4904703;28;110268;-62
2023/01/02 08:55:17;;;;;;;4.30;2.60;;;13.30;91.10;13.30;100626.00;;;;4905227;28;93026;-63
2023/01/02 08:57:43;;;;;;;5.50;3.10;;;13.30;91.20;13.30;100625.00;;;;4899182;28;122344;-63
2023/01/02 09:00:10;;;;;;;4.23;3.00;;;13.30;91.30;13.30;100630.00;;;;4902692;28;112344;-63
2023/01/02 09:02:36;;;;;;;5.00;3.10;;;13.30;91.20;13.30;100638.00;;;;4901787;28;95947;-62
2023/01/02 09:05:02;;;;;;;5.10;2.50;;;13.30;91.30;13.30;100630.00;;;;4904154;28;92849;-61
2023/01/02 09:07:27;;;;;;;5.43;2.60;;;13.30;91.20;13.30;100630.00;;;;4903347;28;123428;-63
2023/01/02 09:09:53;;;;;;;4.77;2.67;;;13.30;91.10;13.40;100630.00;;;;4902443;28;94137;-63
2023/01/02 09:12:19;;;;;;;3.30;2.33;;;13.30;91.30;13.40;100619.00;;;;4901179;28;109457;-62
2023/01/02 09:14:44;;;;;;;4.67;3.07;;;13.40;91.30;13.40;100626.00;;;;4904124;28;107692;-62
2023/01/02 09:17:10;;;;;;;8.67;2.73;;;13.40;91.20;13.40;100625.00;;;;4900322;28;122130;-61
2023/01/02 09:19:36;;;;;;;8.57;2.70;;;13.40;91.10;13.40;100628.00;;;;4901569;28;121359;-62
2023/01/02 09:22:02;;;;;;;4.20;3.07;;;13.40;91.20;13.50;100632.00;;;;4902051;28;109390;-63
2023/01/02 09:24:28;;;;;;;2.63;2.43;;;13.40;91.00;13.50;100629.00;;;;4907679;28;93767;-63
2023/01/02 09:26:54;;;;;;;6.33;2.70;;;13.40;90.90;13.50;100640.00;;;;4902782;28;122504;-62
2023/01/02 09:29:19;;;;;;;4.63;2.40;;;13.50;91.00;13.60;100638.00;;;;4899777;28;121571;-62
2023/01/02 09:31:45;;;;;;;4.07;2.23;;;13.50;91.10;13.60;100642.00;;;;4904810;28;95654;-62
2023/01/02 09:34:11;;;;;;;3.90;2.10;;;13.50;91.10;13.60;100636.00;;;;4901174;28;106846;-63
2023/01/02 09:36:38;;;;;;;5.07;2.60;;;13.60;91.00;13.70;100634.00;;;;4899759;28;93621;-62
2023/01/02 09:39:04;;;;;;;5.97;2.97;;;13.60;90.90;13.70;100623.00;;;;4901904;28;124035;-63
2023/01/02 09:41:43;;;;;;;6.00;3.47;;;13.70;90.90;13.80;100631.00;;;;4902820;28;93656;-61
2023/01/02 09:44:25;;;;;;;5.93;3.07;;;13.80;90.80;13.80;100634.00;;;;4886779;28;92923;-60
2023/01/02 09:47:09;;;;;;;9.05;4.75;;;13.70;90.70;13.80;100639.00;;;;4902332;28;93829;-61
2023/01/02 09:50:21;;;;;;;6.80;5.68;;;13.80;90.50;13.80;100632.00;;;;4906388;28;103460;-63
2023/01/02 09:52:54;;;;;;;5.20;3.83;;;13.80;90.40;13.90;100635.00;;;;4880595;28;93736;-62
2023/01/02 09:55:50;;;;;;;9.77;4.17;;;13.80;90.40;13.90;100645.00;;;;4903580;28;93090;-63
2023/01/02 09:58:45;;;;;;;15.43;7.43;;;13.90;90.40;13.90;100635.00;;;;4888095;28;93824;-64
2023/01/02 10:01:38;;;;;;;7.97;4.88;;;13.90;90.40;13.90;100635.00;;;;4888549;28;92978;-63
2023/01/02 10:05:05;;;;;;;3.53;2.50;;;13.90;90.40;13.90;100627.00;;;;4886993;28;101731;-63
2023/01/02 10:07:57;;;;;;;2.60;1.98;;;13.90;90.40;13.90;100624.00;;;;4857999;28;93095;-63
2023/01/02 10:10:41;;;;;;;4.00;2.03;;;13.90;90.40;14.00;100630.00;;;;4906217;28;114673;-61
2023/01/02 10:13:34;;;;;;;5.45;2.53;;;13.90;90.40;14.00;100620.00;;;;4905089;28;94297;-63
2023/01/02 10:16:03;;;;;;;4.87;1.97;;;14.00;90.70;14.10;100619.00;;;;4886299;28;101496;-62
2023/01/02 10:18:34;;;;;;;3.63;2.60;;;14.00;90.20;14.10;100620.00;;;;4898806;28;93893;-62
2023/01/02 10:21:14;;;;;;;4.80;2.70;;;14.10;90.20;14.20;100609.00;;;;4886015;28;112311;-63
2023/01/02 10:23:49;;;;;;;30.07;13.60;;;14.10;90.10;14.30;100618.00;;;;4876257;28;103993;-62
2023/01/02 10:26:18;;;;;;;7.57;3.13;;;14.20;90.30;14.40;100612.00;;;;4896209;28;93241;-61
2023/01/02 10:29:15;;;;;;;12.10;6.63;;;14.30;90.00;14.50;100627.00;;;;4903691;28;93031;-64
2023/01/02 10:31:51;;;;;;;23.88;11.85;;;14.40;89.60;14.60;100625.00;;;;4884785;28;111956;-62
2023/01/02 10:34:22;;;;;;;7.47;4.63;;;14.50;88.30;14.60;100630.00;;;;4898989;28;116399;-61
2023/01/02 10:36:49;;;;;;;9.07;5.00;;;14.50;88.40;14.60;100621.00;;;;4903095;28;92268;-63
2023/01/02 10:39:21;;;;;;;3.92;2.90;;;14.60;87.90;14.60;100628.00;;;;4901861;28;92863;-61
2023/01/02 10:41:52;;;;;;;14.43;5.13;;;14.60;88.00;14.60;100621.00;;;;4906420;28;107447;-62
2023/01/02 10:44:32;;;;;;;11.68;5.68;;;14.60;87.60;14.60;100626.00;;;;4906764;28;100667;-63
2023/01/02 10:47:12;;;;;;;4.43;2.33;;;14.60;87.60;14.60;100606.00;;;;4885542;28;94140;-62
2023/01/02 10:49:40;;;;;;;5.82;4.07;;;14.60;87.30;14.60;100610.00;;;;4888158;28;92805;-61
2023/01/02 10:52:34;;;;;;;3.80;2.08;;;14.50;87.40;14.60;100605.00;;;;4888292;28;93382;-62
2023/01/02 10:55:01;;;;;;;4.35;3.17;;;14.50;87.20;14.60;100590.00;;;;4905374;28;93142;-62
2023/01/02 10:57:50;;;;;;;9.88;6.10;;;14.50;87.20;14.60;100582.00;;;;4889489;28;92979;-62
2023/01/02 11:00:19;;;;;;;4.80;2.90;;;14.50;86.30;14.60;100596.00;;;;4903218;28;93056;-63
2023/01/02 11:03:19;;;;;;;3.92;2.05;;;14.60;86.00;14.70;100590.00;;;;4905460;28;102302;-63
2023/01/02 11:05:52;;;;;;;4.97;2.97;;;14.50;85.40;14.60;100575.00;;;;4905566;28;93048;-61